Terminal Aerodrome Forecast
Issued by NWS

Home | Current Version | Previous Version | Text Only | Print | Product List | Glossary On
Versions: 1 2 3 4 5 6 7 8 9 10 11 12 13 14 15 16
000
FTUS45 KFGZ 020500
TAFGCN
TAF
KGCN 020530Z 0206/0306 VRB03KT P6SM SCT150
     FM021800 VRB05KT P6SM SCT080 SCT120
      TEMPO 0219/0223 VRB10G20KT 5SM -TSRA BKN070CB
     FM022330 VRB05KT P6SM BKN080 BKN100=

USA.gov is the U.S. government's official web portal to all federal, state and local government web resources and services.